Kezdőlap
METAR-TAF:

METAR-TAF

Repülőterek :

St. Francis, Kansas, Amerikai Egyesült Államok

földrajzi szélesség: 39-45-40N, földrajzi hosszúság: 101-47-45W, magasság: 1040 m

Jelenlegi meteorológiai megfigyelések

A jelentés 39 perccel ezelõtt készült, 22:35 UTC
Északi szél 9 kt
Hőmérséklet 8°C
Páratartalom 42%
Légköri nyomás 1024 hPa
Látótávolság: 16.1 km
Borult 6000 lábon

METAR: KSYF 182235Z AUTO 35009KT 10SM OVC060 08/M04 A3023 RMK AO2 T00751043 PWINO

Idő: 18:14 (23:14 UTC)


TAF: hiányzik

Meteorológiai megfigyelések és előrejelzések több, mint 4000 repülőtéren (METAR és TAF jelentéseket).

A térképen piros és sárga pontok jelzik az elérhető meteorológiai állomásokat.

Mozgassa az egeret a pont fölött, hogy megjelenjen az állomás neve.

Azután kattintson az időjárási megfigyelések és előrejelzések megtekintéséhez.

A térkép megváltoztatása: kattintson a fekete keresztel jelölt zöld gombra ráközelítéshez, a vonallal jelölt zöld gombra távolításhoz, vagy a zöld nyilakra a szomszédos térképek eléréséhez.


METAR-TAF: